Time;durP1;ratioP1;P1;durP2;ratioP2;P2;SDS_P1;SDS_P2;PMS_P1;PMS_P2;Temp;Humidity;BMP_temperature;BMP_pressure;BME280_temperature;BME280_humidity;BME280_pressure;Samples;Min_cycle;Max_cycle;Signal;HPM_P1;HPM_P2
2022/06/16 00:02:07;;;;;;;5.78;4.82;;;20.70;1.00;;;;;;7358702;19;20011;-61
2022/06/16 00:04:38;;;;;;;9.65;5.32;;;20.70;1.00;;;;;;7385668;19;20023;-61
2022/06/16 00:07:08;;;;;;;7.32;4.55;;;20.60;1.00;;;;;;7361876;19;20074;-61
2022/06/16 00:09:41;;;;;;;13.88;6.18;;;20.70;1.00;;;;;;7366345;19;20108;-62
2022/06/16 00:12:11;;;;;;;7.00;5.25;;;20.60;1.00;;;;;;7358020;19;20014;-62
2022/06/16 00:14:42;;;;;;;9.05;5.25;;;20.60;1.00;;;;;;7363739;19;20421;-61
2022/06/16 00:17:12;;;;;;;6.97;5.10;;;20.70;1.00;;;;;;7361575;19;20000;-61
2022/06/16 00:19:41;;;;;;;11.10;5.03;;;20.70;1.00;;;;;;7386246;19;20019;-61
2022/06/16 00:22:11;;;;;;;7.35;4.80;;;20.60;1.00;;;;;;7357145;19;20013;-61
2022/06/16 00:24:45;;;;;;;8.43;5.20;;;20.60;1.00;;;;;;7363519;19;20379;-61
2022/06/16 00:27:15;;;;;;;9.18;5.28;;;20.30;1.00;;;;;;7362236;19;20018;-61
2022/06/16 00:29:45;;;;;;;8.27;4.78;;;20.20;1.00;;;;;;7365776;19;20028;-61
2022/06/16 00:32:15;;;;;;;10.32;5.13;;;20.20;1.00;;;;;;7356424;19;20010;-61
2022/06/16 00:34:45;;;;;;;7.68;5.05;;;20.20;1.00;;;;;;7383810;19;20022;-61
2022/06/16 00:37:15;;;;;;;7.63;5.25;;;20.10;1.00;;;;;;7363933;19;20014;-61
2022/06/16 00:39:48;;;;;;;10.18;5.40;;;20.10;1.00;;;;;;7371309;19;20025;-61
2022/06/16 00:42:20;;;;;;;7.40;5.10;;;20.10;1.00;;;;;;7362787;19;20017;-61
2022/06/16 00:44:53;;;;;;;8.15;5.55;;;19.90;1.00;;;;;;7371058;19;20010;-61
2022/06/16 00:47:25;;;;;;;7.95;5.03;;;19.80;1.00;;;;;;7368890;19;20035;-61
2022/06/16 00:49:59;;;;;;;7.80;5.45;;;19.60;1.00;;;;;;7371463;19;20014;-61
2022/06/16 00:52:31;;;;;;;8.27;4.83;;;19.50;1.00;;;;;;7385660;19;20085;-61
2022/06/16 00:55:09;;;;;;;6.75;5.10;;;19.30;1.00;;;;;;7367781;19;20251;-62
2022/06/16 00:57:43;;;;;;;7.50;5.55;;;19.20;1.00;;;;;;7369838;19;20720;-62
2022/06/16 01:00:18;;;;;;;8.57;4.82;;;19.10;1.00;;;;;;7372120;19;20113;-62
2022/06/16 01:02:48;;;;;;;8.70;5.57;;;18.80;1.00;;;;;;7364786;19;20388;-61
2022/06/16 01:05:15;;;;;;;7.97;5.53;;;18.80;1.00;;;;;;7369154;19;20045;-61
2022/06/16 01:07:48;;;;;;;8.75;5.70;;;18.80;1.00;;;;;;7391636;19;20482;-61
2022/06/16 01:10:21;;;;;;;9.30;6.90;;;18.60;1.00;;;;;;7370807;19;20530;-61
2022/06/16 01:16:06;;;;;;;7.55;5.80;;;18.40;1.00;;;;;;7367602;19;20013;-61
2022/06/16 01:18:44;;;;;;;9.18;5.80;;;18.40;1.00;;;;;;7368795;19;20733;-61
2022/06/16 01:21:20;;;;;;;6.28;5.43;;;18.30;1.00;;;;;;7363433;19;20011;-61
2022/06/16 01:24:29;;;;;;;8.95;6.00;;;18.40;1.00;;;;;;7369743;19;20033;-61
2022/06/16 01:27:30;;;;;;;8.38;6.60;;;18.40;1.00;;;;;;7366182;19;20015;-62
2022/06/16 01:30:06;;;;;;;8.18;5.45;;;18.30;1.00;;;;;;7369891;19;20010;-61
2022/06/16 01:32:47;;;;;;;8.38;5.88;;;18.30;1.00;;;;;;7363776;19;20611;-61
2022/06/16 01:35:28;;;;;;;13.52;5.82;;;18.50;1.00;;;;;;7367224;19;20025;-61
2022/06/16 01:38:07;;;;;;;7.28;5.63;;;18.60;1.00;;;;;;7368616;19;20081;-60
2022/06/16 01:40:41;;;;;;;10.93;5.63;;;18.70;1.00;;;;;;7387445;19;20019;-60
2022/06/16 01:43:13;;;;;;;;;;;18.80;1.00;;;;;;7365168;19;20010;-61
2022/06/16 01:45:54;;;;;;;8.57;6.05;;;18.90;1.00;;;;;;7369253;19;20294;-61
2022/06/16 01:48:26;;;;;;;7.55;5.50;;;18.90;1.00;;;;;;7368870;19;20031;-61
2022/06/16 01:51:00;;;;;;;10.98;5.65;;;19.00;1.00;;;;;;7366133;19;20793;-61
2022/06/16 01:53:37;;;;;;;9.15;5.82;;;18.90;1.00;;;;;;7366738;19;20010;-61
2022/06/16 01:56:16;;;;;;;8.52;5.47;;;19.00;1.00;;;;;;7366873;19;20011;-61
2022/06/16 01:58:52;;;;;;;7.28;5.55;;;18.90;1.00;;;;;;7390626;19;20021;-61
2022/06/16 02:01:27;;;;;;;7.88;5.70;;;18.90;1.00;;;;;;7361946;19;20017;-62
2022/06/16 02:04:03;;;;;;;8.10;5.65;;;18.90;1.00;;;;;;7367765;19;20123;-61
2022/06/16 02:06:36;;;;;;;7.85;5.70;;;18.90;1.00;;;;;;7367202;19;20459;-61
2022/06/16 02:09:13;;;;;;;9.48;5.90;;;18.90;1.00;;;;;;7367779;19;20526;-61
2022/06/16 02:11:45;;;;;;;10.57;6.40;;;18.90;1.00;;;;;;7361437;19;20003;-61
2022/06/16 02:14:19;;;;;;;8.68;6.05;;;18.80;1.00;;;;;;7366889;19;20018;-61
2022/06/16 02:16:53;;;;;;;8.88;7.00;;;18.70;1.00;;;;;;7388817;19;20021;-61
2022/06/16 02:19:25;;;;;;;11.52;6.57;;;18.70;1.00;;;;;;7367803;19;20002;-61
2022/06/16 02:21:57;;;;;;;9.90;6.53;;;18.90;1.00;;;;;;7360299;19;20021;-62
2022/06/16 02:24:30;;;;;;;8.27;6.57;;;18.80;1.00;;;;;;7368483;19;20452;-61
2022/06/16 02:27:02;;;;;;;10.75;6.70;;;18.80;1.00;;;;;;7366981;19;20006;-61
2022/06/16 02:29:37;;;;;;;10.13;6.65;;;18.80;1.00;;;;;;7369898;19;20041;-61
2022/06/16 02:32:31;;;;;;;8.85;6.82;;;18.70;1.00;;;;;;7358863;19;20048;-61
2022/06/16 02:35:06;;;;;;;;;;;18.70;1.00;;;;;;7367081;19;20090;-61
2022/06/16 02:37:58;;;;;;;10.45;6.47;;;18.70;1.00;;;;;;7388111;19;19918;-61
2022/06/16 02:40:46;;;;;;;8.93;6.55;;;18.60;1.00;;;;;;7364640;19;20014;-61
2022/06/16 02:43:31;;;;;;;11.13;6.57;;;18.50;1.00;;;;;;7362405;19;20015;-61
2022/06/16 02:46:09;;;;;;;8.88;6.93;;;18.60;1.00;;;;;;7366390;19;20071;-60
2022/06/16 02:48:48;;;;;;;9.27;6.53;;;18.70;1.00;;;;;;7366500;19;20068;-61
2022/06/16 02:51:23;;;;;;;9.40;6.78;;;18.80;1.00;;;;;;7360094;19;20450;-61
2022/06/16 02:54:00;;;;;;;10.20;7.13;;;18.70;1.00;;;;;;7366386;19;20048;-62
2022/06/16 02:56:39;;;;;;;9.68;6.78;;;18.60;1.00;;;;;;7365871;19;20015;-61
2022/06/16 02:59:14;;;;;;;12.68;6.72;;;18.60;1.00;;;;;;7364465;19;20090;-61
2022/06/16 03:01:44;;;;;;;14.52;7.00;;;18.60;1.00;;;;;;7381328;19;20081;-62
2022/06/16 03:04:20;;;;;;;11.57;7.50;;;18.60;1.00;;;;;;7365474;19;20010;-61
2022/06/16 03:06:50;;;;;;;7.57;6.72;;;18.40;1.00;;;;;;7364444;19;20015;-62
2022/06/16 03:09:20;;;;;;;7.70;6.75;;;18.40;1.00;;;;;;7366034;19;20026;-61
2022/06/16 03:11:49;;;;;;;7.97;6.68;;;18.40;1.00;;;;;;7358391;19;20015;-62
2022/06/16 03:14:19;;;;;;;10.70;7.05;;;18.30;1.00;;;;;;7366134;19;20109;-61
2022/06/16 03:16:49;;;;;;;8.98;7.25;;;18.30;1.00;;;;;;7387005;19;20014;-60
2022/06/16 03:19:22;;;;;;;11.27;7.82;;;18.30;1.00;;;;;;7365496;19;20002;-61
2022/06/16 03:21:54;;;;;;;10.75;6.95;;;18.20;1.00;;;;;;7358520;19;20056;-62
2022/06/16 03:24:23;;;;;;;9.85;7.63;;;18.10;1.00;;;;;;7365239;19;20016;-60
2022/06/16 03:26:53;;;;;;;11.85;7.15;;;18.30;1.00;;;;;;7365517;19;20362;-60
2022/06/16 03:29:23;;;;;;;11.98;7.38;;;18.30;1.00;;;;;;7366199;19;20462;-61
2022/06/16 03:31:54;;;;;;;9.98;7.32;;;18.30;1.00;;;;;;7357988;19;20096;-62
2022/06/16 03:34:28;;;;;;;10.27;7.05;;;18.30;1.00;;;;;;7386505;19;20039;-61
2022/06/16 03:36:58;;;;;;;9.63;7.75;;;18.30;1.00;;;;;;7364636;19;20089;-60
2022/06/16 03:39:27;;;;;;;14.20;7.93;;;18.50;1.00;;;;;;7364276;19;20025;-60
2022/06/16 03:41:57;;;;;;;11.98;7.55;;;18.60;1.00;;;;;;7358576;19;20006;-60
2022/06/16 03:44:27;;;;;;;9.23;7.20;;;19.30;1.00;;;;;;7364721;19;20010;-61
2022/06/16 03:46:57;;;;;;;12.18;7.72;;;19.60;1.00;;;;;;7364339;19;20014;-61
2022/06/16 03:49:29;;;;;;;9.30;6.88;;;19.60;1.00;;;;;;7386941;19;20466;-61
2022/06/16 03:51:59;;;;;;;10.93;6.80;;;19.90;1.00;;;;;;7358281;19;20010;-61
2022/06/16 03:54:29;;;;;;;9.32;6.30;;;20.40;1.00;;;;;;7364092;19;20011;-61
2022/06/16 03:56:59;;;;;;;9.18;6.53;;;20.60;1.00;;;;;;7364545;19;20014;-61
2022/06/16 03:59:29;;;;;;;12.68;6.55;;;20.90;1.00;;;;;;7364862;19;20006;-61
2022/06/16 04:01:59;;;;;;;8.50;6.53;;;20.90;1.00;;;;;;7356886;19;20474;-61
2022/06/16 04:04:31;;;;;;;11.90;6.75;;;21.40;1.00;;;;;;7386097;19;20035;-61
2022/06/16 04:07:01;;;;;;;7.50;5.80;;;21.80;1.00;;;;;;7363225;19;20011;-61
2022/06/16 04:09:31;;;;;;;10.60;6.85;;;22.10;1.00;;;;;;7364165;19;20466;-61
2022/06/16 04:12:01;;;;;;;10.32;6.80;;;21.60;1.00;;;;;;7360073;19;20018;-61
2022/06/16 04:14:32;;;;;;;8.77;6.13;;;22.40;1.00;;;;;;7372657;19;20405;-61
2022/06/16 04:17:02;;;;;;;9.68;6.13;;;21.90;1.00;;;;;;7369719;19;20029;-61
2022/06/16 04:19:35;;;;;;;6.63;5.90;;;22.60;1.00;;;;;;7394148;19;20014;-61
2022/06/16 04:22:05;;;;;;;6.97;6.03;;;23.10;1.00;;;;;;7363491;19;20014;-60
2022/06/16 04:24:35;;;;;;;7.78;5.78;;;21.40;1.00;;;;;;7370860;19;20473;-61
2022/06/16 04:27:05;;;;;;;7.18;5.75;;;22.60;1.00;;;;;;7370623;19;20006;-61
2022/06/16 04:29:35;;;;;;;7.82;5.97;;;22.80;1.00;;;;;;7372917;19;20013;-62
2022/06/16 04:32:05;;;;;;;7.55;5.60;;;21.70;1.00;;;;;;7364729;19;20021;-61
2022/06/16 04:34:38;;;;;;;6.85;5.15;;;20.30;1.00;;;;;;7392353;19;20024;-61
2022/06/16 04:37:08;;;;;;;8.70;5.70;;;20.40;1.00;;;;;;7367810;19;20082;-62
2022/06/16 04:39:39;;;;;;;6.63;5.70;;;19.90;1.00;;;;;;7370588;19;20135;-61
2022/06/16 04:42:09;;;;;;;7.65;5.82;;;19.80;1.00;;;;;;7364453;19;20006;-61
2022/06/16 04:44:40;;;;;;;7.68;5.80;;;19.80;1.00;;;;;;7369786;19;20071;-61
2022/06/16 04:47:10;;;;;;;8.63;5.80;;;19.60;1.00;;;;;;7369676;19;20021;-61
2022/06/16 04:49:43;;;;;;;7.35;5.80;;;20.20;1.00;;;;;;7392624;19;20078;-61
2022/06/16 04:52:13;;;;;;;6.57;5.40;;;19.90;1.00;;;;;;7363125;19;20489;-61
2022/06/16 04:54:46;;;;;;;6.70;5.22;;;19.60;1.00;;;;;;7369726;19;20017;-61
2022/06/16 04:57:16;;;;;;;6.00;4.78;;;20.40;1.00;;;;;;7368705;19;20033;-61
2022/06/16 04:59:46;;;;;;;8.48;6.30;;;22.90;1.00;;;;;;7369357;19;20015;-61
2022/06/16 05:02:24;;;;;;;8.15;4.97;;;23.30;1.00;;;;;;7362564;19;20014;-60
2022/06/16 05:04:56;;;;;;;7.13;5.47;;;24.10;1.00;;;;;;7369203;19;20018;-61
2022/06/16 05:07:26;;;;;;;6.97;4.82;;;25.30;1.00;;;;;;7390222;19;20017;-60
2022/06/16 05:09:56;;;;;;;5.28;4.57;;;24.00;1.00;;;;;;7369268;19;20011;-61
2022/06/16 05:12:26;;;;;;;5.88;5.05;;;22.50;1.00;;;;;;7363516;19;20016;-61
2022/06/16 05:14:56;;;;;;;6.00;5.10;;;21.60;1.00;;;;;;7370144;19;20056;-61
2022/06/16 05:17:26;;;;;;;9.30;5.68;;;21.20;1.00;;;;;;7367521;19;20364;-61
2022/06/16 05:19:58;;;;;;;6.95;4.70;;;20.90;1.00;;;;;;7369646;19;20014;-63
2022/06/16 05:22:28;;;;;;;5.32;4.10;;;20.40;1.00;;;;;;7383803;19;20003;-60
2022/06/16 05:24:58;;;;;;;5.20;4.47;;;20.30;1.00;;;;;;7368588;19;20113;-60
2022/06/16 05:27:28;;;;;;;7.60;4.90;;;20.10;1.00;;;;;;7362952;19;20010;-60
2022/06/16 05:29:58;;;;;;;9.50;5.57;;;19.90;1.00;;;;;;7365450;19;20006;-60
2022/06/16 05:32:28;;;;;;;7.28;5.88;;;20.00;1.00;;;;;;7370883;19;20386;-60
2022/06/16 05:35:00;;;;;;;6.82;5.95;;;19.80;1.00;;;;;;7369270;19;20078;-61
2022/06/16 05:37:30;;;;;;;6.85;5.55;;;19.80;1.00;;;;;;7388575;19;20116;-61
2022/06/16 05:40:00;;;;;;;9.65;5.88;;;19.80;1.00;;;;;;7366119;19;20018;-61
2022/06/16 05:42:30;;;;;;;8.32;5.78;;;19.70;1.00;;;;;;7369806;19;20554;-61
2022/06/16 05:45:00;;;;;;;9.27;6.20;;;20.40;1.00;;;;;;7367595;19;20006;-62
2022/06/16 05:47:30;;;;;;;7.57;5.35;;;20.30;1.00;;;;;;7367474;19;20006;-62
2022/06/16 05:50:03;;;;;;;10.40;5.82;;;20.70;1.00;;;;;;7364241;19;20022;-60
2022/06/16 05:52:33;;;;;;;8.40;5.20;;;20.80;1.00;;;;;;7391310;19;20019;-61
2022/06/16 05:55:03;;;;;;;12.88;4.80;;;21.90;1.00;;;;;;7366612;19;20085;-61
2022/06/16 05:57:33;;;;;;;7.35;4.80;;;22.30;1.00;;;;;;7367317;19;20009;-61
2022/06/16 06:00:03;;;;;;;6.97;4.55;;;22.50;1.00;;;;;;7361895;19;20032;-61
2022/06/16 06:02:33;;;;;;;6.22;4.78;;;23.20;1.00;;;;;;7370006;19;20373;-61
2022/06/16 06:05:07;;;;;;;4.65;3.85;;;23.20;1.00;;;;;;7368196;19;20018;-62
2022/06/16 06:18:39;;;;;;;6.20;3.83;;;21.50;1.00;;;;;;7362573;19;20030;-61
2022/06/16 06:21:11;;;;;;;6.05;3.38;;;21.30;1.00;;;;;;7367037;19;20366;-61
2022/06/16 06:23:41;;;;;;;4.90;3.50;;;21.10;1.00;;;;;;7367404;19;20470;-61
2022/06/16 06:26:13;;;;;;;6.05;5.10;;;21.10;1.00;;;;;;7367419;19;20020;-61
2022/06/16 06:28:43;;;;;;;6.65;4.18;;;21.30;1.00;;;;;;7384044;19;20021;-61
2022/06/16 06:31:13;;;;;;;6.85;4.38;;;21.20;1.00;;;;;;7367347;19;20035;-61
2022/06/16 06:33:43;;;;;;;6.00;4.15;;;21.30;1.00;;;;;;7366749;19;20003;-61
2022/06/16 06:36:15;;;;;;;6.18;4.20;;;21.60;1.00;;;;;;7365560;19;20007;-61
2022/06/16 06:38:45;;;;;;;6.85;3.85;;;22.00;1.00;;;;;;7361486;19;20011;-61
2022/06/16 06:41:17;;;;;;;4.95;3.85;;;22.70;1.00;;;;;;7367721;19;20383;-61
2022/06/16 06:43:47;;;;;;;5.20;4.32;;;23.50;1.00;;;;;;7388475;19;20040;-59
2022/06/16 06:46:16;;;;;;;4.97;4.45;;;23.00;1.00;;;;;;7366678;19;20055;-61
2022/06/16 06:48:46;;;;;;;7.85;4.68;;;22.00;1.00;;;;;;7361483;19;20074;-61
2022/06/16 06:51:19;;;;;;;5.85;3.90;;;21.80;1.00;;;;;;7366850;19;20007;-61
2022/06/16 06:53:49;;;;;;;8.77;4.50;;;22.00;1.00;;;;;;7365777;19;20020;-61
2022/06/16 06:56:20;;;;;;;5.47;4.38;;;21.90;1.00;;;;;;7366054;19;20010;-61
2022/06/16 06:58:50;;;;;;;5.78;4.22;;;21.80;1.00;;;;;;7381146;19;20017;-61
2022/06/16 07:01:19;;;;;;;7.03;4.28;;;22.20;1.00;;;;;;7367787;19;20006;-61
2022/06/16 07:03:50;;;;;;;6.32;4.10;;;22.20;1.00;;;;;;7367309;19;20007;-61
2022/06/16 07:06:23;;;;;;;7.93;4.38;;;22.20;1.00;;;;;;7364887;19;21025;-61
2022/06/16 07:08:53;;;;;;;7.50;4.35;;;22.30;1.00;;;;;;7360888;19;20074;-61
2022/06/16 07:11:23;;;;;;;13.05;4.63;;;22.30;1.00;;;;;;7367078;19;20014;-61
2022/06/16 07:13:53;;;;;;;5.75;4.55;;;22.50;1.00;;;;;;7367382;19;20069;-62
2022/06/16 07:16:24;;;;;;;7.38;4.57;;;22.70;1.00;;;;;;7386262;19;20118;-61
2022/06/16 07:18:54;;;;;;;7.10;4.28;;;22.70;1.00;;;;;;7359124;19;20022;-61
2022/06/16 07:21:26;;;;;;;6.70;4.60;;;22.80;1.00;;;;;;7366291;19;20016;-61
2022/06/16 07:23:56;;;;;;;8.15;4.35;;;23.00;1.00;;;;;;7364097;19;20003;-61
2022/06/16 07:26:27;;;;;;;7.35;4.80;;;22.60;1.00;;;;;;7364149;19;20037;-62
2022/06/16 07:28:59;;;;;;;7.13;4.38;;;22.60;1.00;;;;;;7357697;19;20093;-62
2022/06/16 07:31:30;;;;;;;8.20;4.70;;;23.50;1.00;;;;;;7387175;19;20030;-61
2022/06/16 07:34:05;;;;;;;8.48;4.68;;;23.60;1.00;;;;;;7363813;19;20022;-60
2022/06/16 07:36:38;;;;;;;5.72;4.50;;;23.00;1.00;;;;;;7362252;19;20688;-60
2022/06/16 07:39:07;;;;;;;4.88;4.32;;;23.50;1.00;;;;;;7359735;19;20014;-60
2022/06/16 07:41:39;;;;;;;5.45;4.30;;;23.70;1.00;;;;;;7366783;19;20019;-60
2022/06/16 07:44:13;;;;;;;6.57;4.30;;;23.90;1.00;;;;;;7365254;19;20011;-60
2022/06/16 07:46:46;;;;;;;6.75;3.90;;;23.60;1.00;;;;;;7384341;19;20031;-60
2022/06/16 07:49:21;;;;;;;7.95;4.32;;;23.80;1.00;;;;;;7360124;19;20482;-61
2022/06/16 07:51:54;;;;;;;7.63;4.13;;;24.20;1.00;;;;;;7365315;19;20474;-60
2022/06/16 07:54:25;;;;;;;7.00;4.30;;;24.30;1.00;;;;;;7364584;19;20154;-61
2022/06/16 07:57:16;;;;;;;7.00;4.35;;;23.90;1.00;;;;;;7362743;19;20695;-62
2022/06/16 07:59:53;;;;;;;6.88;4.05;;;24.20;1.00;;;;;;7357403;19;20038;-61
2022/06/16 08:02:24;;;;;;;8.02;4.40;;;24.40;1.00;;;;;;7365013;19;20506;-61
2022/06/16 08:04:54;;;;;;;8.40;4.30;;;24.60;1.00;;;;;;7363841;19;21101;-62
2022/06/16 08:07:26;;;;;;;6.68;4.20;;;24.80;1.00;;;;;;7382990;19;20073;-60
2022/06/16 08:09:56;;;;;;;8.95;4.47;;;24.70;1.00;;;;;;7355482;19;20530;-60
2022/06/16 08:12:26;;;;;;;5.32;4.22;;;24.90;1.00;;;;;;7363907;19;20097;-61
2022/06/16 08:14:56;;;;;;;6.25;3.97;;;24.20;1.00;;;;;;7363702;19;20014;-60
2022/06/16 08:17:31;;;;;;;4.43;4.00;;;24.00;1.00;;;;;;7362159;19;20010;-60
2022/06/16 08:20:02;;;;;;;5.78;4.10;;;24.30;1.00;;;;;;7355314;19;20082;-61
2022/06/16 08:22:35;;;;;;;10.35;4.05;;;24.20;1.00;;;;;;7385732;19;20066;-60
2022/06/16 08:25:04;;;;;;;4.90;3.60;;;24.40;1.00;;;;;;7364518;19;20011;-61
2022/06/16 08:27:38;;;;;;;6.03;3.88;;;24.60;1.00;;;;;;7364441;19;20044;-61
2022/06/16 08:30:11;;;;;;;8.75;4.40;;;24.20;1.00;;;;;;7357240;19;20003;-62
2022/06/16 08:32:42;;;;;;;8.57;4.37;;;24.00;1.00;;;;;;7365341;19;20007;-62
2022/06/16 08:35:13;;;;;;;4.78;3.85;;;24.50;1.00;;;;;;7364134;19;20711;-62
2022/06/16 08:37:46;;;;;;;6.07;4.07;;;25.00;1.00;;;;;;7385500;19;20471;-62
2022/06/16 08:40:18;;;;;;;5.97;4.13;;;25.60;1.00;;;;;;7355982;19;20262;-61
2022/06/16 08:42:52;;;;;;;6.95;4.35;;;25.40;1.00;;;;;;7363794;19;20006;-60
2022/06/16 08:45:30;;;;;;;8.40;4.35;;;24.60;1.00;;;;;;7361576;19;20020;-61
2022/06/16 08:48:13;;;;;;;5.57;4.10;;;24.50;1.00;;;;;;7358368;19;20076;-61
2022/06/16 08:50:51;;;;;;;8.32;4.70;;;24.50;1.00;;;;;;7363098;19;20021;-62
2022/06/16 08:53:49;;;;;;;5.28;4.30;;;24.30;1.00;;;;;;7364063;19;20002;-60
2022/06/16 08:56:24;;;;;;;5.10;4.35;;;24.80;1.00;;;;;;7362069;19;20090;-62
2022/06/16 08:59:02;;;;;;;5.55;4.32;;;25.10;1.00;;;;;;7358643;19;20014;-61
2022/06/16 09:01:38;;;;;;;9.07;5.22;;;24.70;1.00;;;;;;7392665;19;20360;-60
2022/06/16 09:04:12;;;;;;;8.48;4.82;;;24.70;1.00;;;;;;7370253;19;20017;-61
2022/06/16 09:06:53;;;;;;;7.55;4.63;;;25.00;1.00;;;;;;7368597;19;20050;-62
2022/06/16 09:12:40;;;;;;;7.22;5.18;;;24.70;1.00;;;;;;7369741;19;20064;-62
2022/06/16 09:15:20;;;;;;;6.50;5.25;;;25.00;1.00;;;;;;7370385;19;20010;-63
2022/06/16 09:18:04;;;;;;;9.05;5.35;;;24.20;1.00;;;;;;7367981;19;20499;-62
2022/06/16 09:20:40;;;;;;;9.10;5.60;;;25.50;1.00;;;;;;7367814;19;20443;-61
2022/06/16 09:23:27;;;;;;;6.78;5.10;;;25.30;1.00;;;;;;7368757;19;20501;-61
2022/06/16 09:26:17;;;;;;;6.10;4.68;;;24.80;1.00;;;;;;7368181;19;20379;-61
2022/06/16 09:28:54;;;;;;;7.63;4.97;;;25.10;1.00;;;;;;7382547;19;20003;-61
2022/06/16 09:31:32;;;;;;;7.03;4.40;;;25.50;1.00;;;;;;7371077;19;20010;-61
2022/06/16 09:34:11;;;;;;;6.15;4.95;;;25.50;1.00;;;;;;7368326;19;20390;-61
2022/06/16 09:36:45;;;;;;;5.95;4.63;;;25.90;1.00;;;;;;7368167;19;20102;-61
2022/06/16 09:39:21;;;;;;;6.13;5.07;;;26.20;1.00;;;;;;7356191;19;20085;-61
2022/06/16 09:45:06;;;;;;;5.03;4.53;;;26.00;1.00;;;;;;7367980;19;20014;-63
2022/06/16 09:47:44;;;;;;;5.13;4.63;;;25.50;1.00;;;;;;7367217;19;20011;-60
2022/06/16 09:50:23;;;;;;;7.65;4.80;;;26.00;1.00;;;;;;7358723;19;20018;-62
2022/06/16 09:52:57;;;;;;;6.75;4.50;;;26.60;1.00;;;;;;7370598;19;20057;-62
2022/06/16 09:55:35;;;;;;;7.13;4.40;;;26.50;1.00;;;;;;7389216;19;20029;-63
2022/06/16 09:58:17;;;;;;;6.15;4.15;;;26.30;1.00;;;;;;7358975;19;20065;-62
2022/06/16 10:00:47;;;;;;;5.65;4.15;;;26.50;1.00;;;;;;7367162;19;20025;-61
2022/06/16 10:03:28;;;;;;;6.32;4.25;;;26.20;1.00;;;;;;7367442;19;20010;-62
2022/06/16 10:06:20;;;;;;;5.38;4.00;;;26.50;1.00;;;;;;7367060;19;20007;-61
2022/06/16 10:08:58;;;;;;;9.32;4.03;;;26.50;1.00;;;;;;7359165;19;20018;-61
2022/06/16 10:11:39;;;;;;;6.75;4.05;;;26.60;1.00;;;;;;7367697;19;20022;-62
2022/06/16 10:14:20;;;;;;;7.43;5.15;;;26.30;1.00;;;;;;7368773;19;20051;-61
2022/06/16 10:16:55;;;;;;;4.75;3.90;;;26.00;1.00;;;;;;7388659;19;20018;-61
2022/06/16 10:19:29;;;;;;;4.75;3.55;;;26.20;1.00;;;;;;7357385;19;20006;-62
2022/06/16 10:22:01;;;;;;;5.65;3.83;;;27.00;1.00;;;;;;7366626;19;20018;-62
2022/06/16 10:24:37;;;;;;;7.90;4.00;;;27.00;1.00;;;;;;7368088;19;20010;-61
2022/06/16 10:27:07;;;;;;;7.30;3.55;;;26.60;1.00;;;;;;7363369;19;20017;-62
2022/06/16 10:29:53;;;;;;;4.70;4.00;;;26.60;1.00;;;;;;7357571;19;20018;-65
2022/06/16 10:32:38;;;;;;;4.68;3.75;;;27.10;1.00;;;;;;7365092;19;20118;-63
2022/06/16 10:35:16;;;;;;;5.25;3.53;;;26.90;1.00;;;;;;7366245;19;20471;-63
2022/06/16 10:37:48;;;;;;;4.85;4.00;;;26.90;1.00;;;;;;7381981;19;20073;-62
2022/06/16 10:40:22;;;;;;;5.13;3.50;;;26.70;1.00;;;;;;7357747;19;20031;-62
2022/06/16 10:42:55;;;;;;;6.68;3.80;;;26.70;1.00;;;;;;7365801;19;20368;-62
2022/06/16 10:45:31;;;;;;;4.43;3.70;;;26.60;1.00;;;;;;7366400;19;20032;-62
2022/06/16 10:48:04;;;;;;;5.53;3.80;;;27.00;1.00;;;;;;7359630;19;20006;-62
2022/06/16 10:50:38;;;;;;;6.40;3.72;;;26.70;1.00;;;;;;7363767;19;20039;-62
2022/06/16 10:53:25;;;;;;;8.77;4.00;;;26.60;1.00;;;;;;7366038;19;20471;-63
2022/06/16 10:55:59;;;;;;;5.88;3.75;;;27.10;1.00;;;;;;7364277;19;20091;-62
2022/06/16 10:58:31;;;;;;;9.95;3.85;;;27.00;1.00;;;;;;7379045;19;20006;-62
2022/06/16 11:01:15;;;;;;;10.05;3.83;;;27.40;1.00;;;;;;7362856;19;20018;-62
2022/06/16 11:03:47;;;;;;;5.88;3.53;;;27.30;1.00;;;;;;7365333;19;20481;-61
2022/06/16 11:06:20;;;;;;;5.07;3.80;;;27.50;1.00;;;;;;7363805;19;20006;-62
2022/06/16 11:08:54;;;;;;;6.20;3.50;;;27.60;1.00;;;;;;7356555;19;20039;-63
2022/06/16 11:11:39;;;;;;;7.47;3.80;;;27.80;1.00;;;;;;7365085;19;20007;-63
2022/06/16 11:14:14;;;;;;;3.97;3.50;;;27.70;1.00;;;;;;7365277;19;20074;-62
2022/06/16 11:16:55;;;;;;;3.65;3.35;;;27.50;1.00;;;;;;7385784;19;20526;-61
2022/06/16 11:19:30;;;;;;;6.88;3.13;;;27.60;1.00;;;;;;7355645;19;20015;-63
2022/06/16 11:22:04;;;;;;;5.85;3.67;;;27.30;1.00;;;;;;7363302;19;20497;-61
2022/06/16 11:24:36;;;;;;;7.22;3.60;;;26.90;1.00;;;;;;7364885;19;20701;-62
2022/06/16 11:27:15;;;;;;;5.05;3.55;;;27.60;1.00;;;;;;7363690;19;20085;-61
2022/06/16 11:29:46;;;;;;;6.20;3.45;;;27.60;1.00;;;;;;7355958;19;20049;-62
2022/06/16 11:32:24;;;;;;;3.63;3.05;;;27.50;1.00;;;;;;7362548;19;20014;-61
2022/06/16 11:34:54;;;;;;;4.05;3.22;;;27.80;1.00;;;;;;7364235;19;20015;-62
2022/06/16 11:37:46;;;;;;;4.65;3.10;;;28.40;1.00;;;;;;7382802;19;20041;-62
2022/06/16 11:40:33;;;;;;;4.65;3.40;;;28.00;1.00;;;;;;7356573;19;20020;-62
2022/06/16 11:43:26;;;;;;;6.28;3.25;;;28.10;1.00;;;;;;7364270;19;20007;-62
2022/06/16 11:46:06;;;;;;;3.88;3.47;;;28.40;1.00;;;;;;7363081;19;20556;-63
2022/06/16 11:48:57;;;;;;;4.22;3.35;;;27.50;1.00;;;;;;7354624;19;20014;-62
2022/06/16 11:51:35;;;;;;;5.50;3.10;;;27.70;1.00;;;;;;7363721;19;20021;-63
2022/06/16 11:54:22;;;;;;;6.10;3.67;;;27.80;1.00;;;;;;7364265;19;20482;-61
2022/06/16 11:56:56;;;;;;;4.72;3.50;;;27.30;1.00;;;;;;7363573;19;20018;-63
2022/06/16 11:59:53;;;;;;;6.10;3.45;;;27.40;1.00;;;;;;7354705;19;20014;-63
2022/06/16 12:02:48;;;;;;;3.83;3.10;;;27.70;1.00;;;;;;7363282;19;20078;-61
2022/06/16 12:05:34;;;;;;;5.72;3.00;;;26.80;1.00;;;;;;7363908;19;20022;-62
2022/06/16 12:08:16;;;;;;;5.43;3.05;;;27.90;1.00;;;;;;7357223;19;20131;-62
2022/06/16 12:10:50;;;;;;;6.28;3.10;;;27.50;1.00;;;;;;7384623;19;20467;-62
2022/06/16 12:13:26;;;;;;;6.43;3.13;;;27.70;1.00;;;;;;7363548;19;20026;-62
2022/06/16 12:16:00;;;;;;;4.43;2.92;;;28.00;1.00;;;;;;7362049;19;20488;-62
2022/06/16 12:18:41;;;;;;;5.50;2.92;;;27.90;1.00;;;;;;7354698;19;20086;-62
2022/06/16 12:21:28;;;;;;;5.90;3.25;;;27.60;1.00;;;;;;7361151;19;20494;-61
2022/06/16 12:24:04;;;;;;;3.40;2.83;;;27.90;1.00;;;;;;7363736;19;20725;-61
2022/06/16 12:26:40;;;;;;;4.15;2.80;;;28.30;1.00;;;;;;7362220;19;20011;-63
2022/06/16 12:29:23;;;;;;;3.80;3.33;;;27.90;1.00;;;;;;7353603;19;20031;-60
2022/06/16 12:32:04;;;;;;;3.13;2.80;;;28.10;1.00;;;;;;7364502;19;20018;-62
2022/06/16 12:34:41;;;;;;;3.28;2.92;;;27.70;1.00;;;;;;7393609;19;20446;-63
2022/06/16 12:37:19;;;;;;;6.15;2.65;;;27.80;1.00;;;;;;7366146;19;20070;-62
2022/06/16 12:39:59;;;;;;;4.80;2.90;;;28.20;1.00;;;;;;7359759;19;20010;-61
2022/06/16 12:42:42;;;;;;;5.30;2.92;;;27.70;1.00;;;;;;7369383;19;20498;-63
2022/06/16 12:45:17;;;;;;;4.28;3.10;;;28.30;1.00;;;;;;7372007;19;20077;-63
2022/06/16 12:47:52;;;;;;;6.13;3.05;;;27.90;1.00;;;;;;7368574;19;20018;-61
2022/06/16 12:50:28;;;;;;;6.43;3.00;;;27.60;1.00;;;;;;7366124;19;20460;-62
2022/06/16 12:53:06;;;;;;;4.82;3.10;;;27.60;1.00;;;;;;7366596;19;20018;-60
2022/06/16 12:55:41;;;;;;;6.15;2.80;;;28.20;1.00;;;;;;7390249;19;20057;-61
2022/06/16 12:58:17;;;;;;;9.75;3.10;;;28.40;1.00;;;;;;7361953;19;20015;-61
2022/06/16 13:00:51;;;;;;;5.20;3.10;;;28.20;1.00;;;;;;7367729;19;20115;-62
2022/06/16 13:03:22;;;;;;;;;;;27.90;1.00;;;;;;7368828;19;20013;-61
2022/06/16 13:05:56;;;;;;;3.53;3.10;;;28.40;1.00;;;;;;7369821;19;19911;-61
2022/06/16 13:08:32;;;;;;;6.97;3.83;;;27.90;1.00;;;;;;7362286;19;20002;-61
2022/06/16 13:11:06;;;;;;;4.70;3.10;;;28.50;1.00;;;;;;7370253;19;20116;-61
2022/06/16 13:13:42;;;;;;;4.68;2.97;;;28.80;1.00;;;;;;7391494;19;20010;-61
2022/06/16 13:16:16;;;;;;;3.60;2.40;;;28.70;1.00;;;;;;7368209;19;20021;-62
2022/06/16 13:18:53;;;;;;;6.53;2.47;;;28.10;1.00;;;;;;7362057;19;20027;-61
2022/06/16 13:21:29;;;;;;;3.85;2.65;;;28.50;1.00;;;;;;7369469;19;20011;-62
2022/06/16 13:24:21;;;;;;;3.95;2.63;;;28.30;1.00;;;;;;7369578;19;20464;-61
2022/06/16 13:27:01;;;;;;;4.03;2.42;;;28.80;1.00;;;;;;7368452;19;20007;-62
2022/06/16 13:29:42;;;;;;;3.67;2.63;;;28.40;1.00;;;;;;7360869;19;20023;-59
2022/06/16 13:32:36;;;;;;;4.25;3.03;;;28.30;1.00;;;;;;7369897;19;20000;-60
2022/06/16 13:35:29;;;;;;;4.78;2.95;;;28.10;1.00;;;;;;7368011;19;20023;-60
2022/06/16 13:38:24;;;;;;;4.22;2.72;;;28.50;1.00;;;;;;7363441;19;20018;-61
2022/06/16 13:41:24;;;;;;;6.03;2.97;;;28.70;1.00;;;;;;7369088;19;20473;-62
2022/06/16 13:44:24;;;;;;;7.28;2.80;;;28.20;1.00;;;;;;7366501;19;20010;-62
2022/06/16 13:47:24;;;;;;;6.68;3.00;;;27.90;1.00;;;;;;7366542;19;20019;-62
2022/06/16 13:50:03;;;;;;;6.18;2.53;;;28.70;1.00;;;;;;7359750;19;20010;-63
2022/06/16 13:52:37;;;;;;;4.78;2.30;;;28.70;1.00;;;;;;7391552;19;20019;-62
2022/06/16 13:55:28;;;;;;;4.28;2.10;;;28.70;1.00;;;;;;7367636;19;20019;-62
2022/06/16 13:58:19;;;;;;;8.02;2.80;;;28.20;1.00;;;;;;7362825;19;20347;-61
2022/06/16 14:01:05;;;;;;;6.30;2.72;;;28.40;1.00;;;;;;7368785;19;20098;-62